createdAt,value
2019-01-10T17:33:27.326Z,76.70
2019-01-10T17:38:07.047Z,77.90
2019-01-10T17:40:42.159Z,78.20
2019-01-10T17:43:17.148Z,77.80
2019-01-10T17:45:52.767Z,78.00
2019-01-10T17:48:27.977Z,78.80
2019-01-10T17:51:03.897Z,79.10
2019-01-10T17:53:39.077Z,79.40
2019-01-10T17:56:14.382Z,81.70
2019-01-10T17:58:50.505Z,81.30
2019-01-10T18:01:25.369Z,81.50
2019-01-10T18:04:00.215Z,81.30
2019-01-10T18:06:36.337Z,81.60
2019-01-10T18:09:11.361Z,82.50
2019-01-10T18:11:46.478Z,83.00
2019-01-10T18:14:21.345Z,83.10
2019-01-10T18:16:56.464Z,83.10
2019-01-10T18:19:32.396Z,83.30
2019-01-10T18:22:07.405Z,83.80
2019-01-10T18:24:42.256Z,83.30
2019-01-10T18:27:17.499Z,83.60
2019-01-10T18:29:54.648Z,84.40
2019-01-10T18:32:30.112Z,84.50
2019-01-10T18:35:05.819Z,84.20
2019-01-10T18:37:41.448Z,83.80
2019-01-10T18:40:17.599Z,84.00
2019-01-10T18:42:53.543Z,83.80
2019-01-10T18:45:30.704Z,84.10
2019-01-10T18:48:05.660Z,83.00
2019-01-10T18:50:40.871Z,83.80
2019-01-10T18:53:17.367Z,83.90
2019-01-10T18:55:52.331Z,83.60
2019-01-10T18:58:27.645Z,83.50
2019-01-10T19:01:03.738Z,84.10
2019-01-10T19:03:39.534Z,84.60
2019-01-10T19:06:14.936Z,84.60
2019-01-10T19:08:50.899Z,84.50
2019-01-10T19:11:26.174Z,84.10
2019-01-10T19:14:02.101Z,84.50
2019-01-10T19:16:38.490Z,83.40
2019-01-10T19:19:13.726Z,83.70
2019-01-10T19:21:49.198Z,83.70
2019-01-10T19:24:24.170Z,84.20
2019-01-10T19:26:59.517Z,83.80
2019-01-10T19:29:36.131Z,84.10
2019-01-10T19:32:11.192Z,84.00
2019-01-10T19:34:47.422Z,84.20
2019-01-10T19:37:22.564Z,84.10
2019-01-10T19:39:57.562Z,84.50
2019-01-10T19:42:34.580Z,85.00
2019-01-10T19:45:12.622Z,84.70
2019-01-10T19:47:47.773Z,84.20
2019-01-10T19:50:26.453Z,84.00
2019-01-10T19:53:01.887Z,82.30
2019-01-10T19:55:37.011Z,80.90
2019-01-10T19:58:12.206Z,80.30
2019-01-10T20:00:47.766Z,80.60
2019-01-10T20:03:38.535Z,80.00
2019-01-10T20:06:13.856Z,80.90
2019-01-10T20:08:48.959Z,81.20
2019-01-10T20:11:27.089Z,80.80
2019-01-10T20:14:03.552Z,80.40
2019-01-10T20:16:39.145Z,79.80
2019-01-10T20:19:15.542Z,79.70
2019-01-10T20:21:51.326Z,79.30
2019-01-10T20:24:27.727Z,79.40
2019-01-10T20:27:11.632Z,79.20
2019-01-10T20:29:47.733Z,78.80
2019-01-10T20:32:24.177Z,79.30
2019-01-10T20:35:06.543Z,79.10
2019-01-10T20:37:45.623Z,79.30
2019-01-10T20:40:21.741Z,80.10
2019-01-10T20:43:01.601Z,80.00
2019-01-10T20:45:37.425Z,79.60
2019-01-10T20:48:22.562Z,79.30
2019-01-10T20:50:58.846Z,80.30
2019-01-10T20:53:33.967Z,79.80
2019-01-10T20:56:09.018Z,79.80
2019-01-10T20:58:44.521Z,79.60
2019-01-10T21:01:22.313Z,80.20
2019-01-10T21:03:59.394Z,79.80
2019-01-10T21:06:36.658Z,80.20
2019-01-10T21:09:14.027Z,80.20
2019-01-10T21:11:49.300Z,80.00
2019-01-10T21:14:24.454Z,80.00
2019-01-10T21:16:59.655Z,80.90
2019-01-10T21:19:35.750Z,81.00
2019-01-10T21:22:12.589Z,81.00
2019-01-10T21:24:48.592Z,81.40
2019-01-10T21:27:23.685Z,82.00
2019-01-10T21:29:58.724Z,82.00
2019-01-10T21:34:15.000Z,82.20
2019-01-10T21:36:55.615Z,82.90
2019-01-10T21:39:30.766Z,82.80
2019-01-10T21:42:05.747Z,81.80
2019-01-10T21:44:40.897Z,81.80
2019-01-10T21:47:17.980Z,81.50
2019-01-10T21:49:53.983Z,81.20
2019-01-10T21:52:30.020Z,82.60
2019-01-10T21:55:09.433Z,81.60
2019-01-10T21:57:44.680Z,81.70
2019-01-10T22:00:26.573Z,81.30
2019-01-10T22:03:02.291Z,81.60
2019-01-10T22:05:37.570Z,81.90
2019-01-10T22:08:12.701Z,81.60
2019-01-10T22:10:47.806Z,81.40
2019-01-10T22:13:24.078Z,81.60
2019-01-10T22:16:01.843Z,82.90
2019-01-10T22:18:41.772Z,82.40
2019-01-10T22:21:16.861Z,82.20
2019-01-10T22:23:57.898Z,82.40
2019-01-10T22:26:38.215Z,82.40
2019-01-10T22:29:14.582Z,82.60
2019-01-10T22:31:49.809Z,82.40
2019-01-10T22:34:29.162Z,82.70
2019-01-10T22:37:04.210Z,82.90
2019-01-10T22:39:39.343Z,82.90
2019-01-10T22:42:14.410Z,83.30
2019-01-10T22:44:50.904Z,83.20
2019-01-10T22:47:26.365Z,83.60
2019-01-10T22:50:03.652Z,83.60
2019-01-10T22:52:38.678Z,83.20
2019-01-10T22:55:15.358Z,83.20
2019-01-10T22:57:50.298Z,83.80
2019-01-10T23:00:39.624Z,83.80
2019-01-10T23:03:16.616Z,84.20
2019-01-10T23:05:52.013Z,83.50
2019-01-10T23:08:27.817Z,83.70
2019-01-10T23:11:03.121Z,84.10
2019-01-10T23:13:38.147Z,84.30
2019-01-10T23:16:17.088Z,84.90
2019-01-10T23:18:55.418Z,86.60
2019-01-10T23:21:32.493Z,84.80
2019-01-10T23:24:07.918Z,83.80
2019-01-10T23:26:53.181Z,83.60
2019-01-10T23:29:33.590Z,83.60
2019-01-10T23:32:09.383Z,83.90
2019-01-10T23:34:47.149Z,83.70
2019-01-10T23:37:23.323Z,84.20
2019-01-10T23:40:09.865Z,84.00
2019-01-10T23:42:46.211Z,83.70
2019-01-10T23:45:23.221Z,84.50
2019-01-10T23:48:00.285Z,84.10
2019-01-10T23:50:36.270Z,84.10
2019-01-10T23:53:12.489Z,85.70
2019-01-10T23:55:47.821Z,84.40
2019-01-10T23:58:23.774Z,84.10
